sensor_id;sensor_type;location;lat;lon;timestamp;P1;durP1;ratioP1;P2;durP2;ratioP2
3801;SDS011;1916;51.798;12.246;2022-09-09T00:03:47;12.63;;;7.97;;
3801;SDS011;1916;51.798;12.246;2022-09-09T00:06:08;10.77;;;7.43;;
3801;SDS011;1916;51.798;12.246;2022-09-09T00:08:18;10.67;;;6.37;;
3801;SDS011;1916;51.798;12.246;2022-09-09T00:10:29;9.93;;;6.40;;
3801;SDS011;1916;51.798;12.246;2022-09-09T00:17:04;9.87;;;5.40;;
3801;SDS011;1916;51.798;12.246;2022-09-09T00:19:24;6.03;;;4.53;;
3801;SDS011;1916;51.798;12.246;2022-09-09T00:23:59;8.20;;;5.57;;
3801;SDS011;1916;51.798;12.246;2022-09-09T00:26:09;7.27;;;5.40;;
3801;SDS011;1916;51.798;12.246;2022-09-09T00:28:18;6.93;;;4.80;;
3801;SDS011;1916;51.798;12.246;2022-09-09T00:30:26;8.30;;;4.70;;
3801;SDS011;1916;51.798;12.246;2022-09-09T00:32:30;6.67;;;3.80;;
3801;SDS011;1916;51.798;12.246;2022-09-09T00:34:37;4.20;;;3.43;;
3801;SDS011;1916;51.798;12.246;2022-09-09T00:36:50;6.83;;;4.60;;
3801;SDS011;1916;51.798;12.246;2022-09-09T00:38:58;4.23;;;3.83;;
3801;SDS011;1916;51.798;12.246;2022-09-09T00:41:07;6.50;;;4.27;;
3801;SDS011;1916;51.798;12.246;2022-09-09T00:43:29;5.83;;;4.53;;
3801;SDS011;1916;51.798;12.246;2022-09-09T00:45:41;5.80;;;4.10;;
3801;SDS011;1916;51.798;12.246;2022-09-09T00:47:51;6.23;;;3.70;;
3801;SDS011;1916;51.798;12.246;2022-09-09T00:50:05;7.77;;;4.90;;
3801;SDS011;1916;51.798;12.246;2022-09-09T00:54:57;6.03;;;3.73;;
3801;SDS011;1916;51.798;12.246;2022-09-09T00:57:43;5.33;;;4.30;;
3801;SDS011;1916;51.798;12.246;2022-09-09T01:04:44;5.33;;;3.80;;
3801;SDS011;1916;51.798;12.246;2022-09-09T01:06:47;4.20;;;3.80;;
3801;SDS011;1916;51.798;12.246;2022-09-09T01:11:21;6.73;;;3.47;;
3801;SDS011;1916;51.798;12.246;2022-09-09T01:13:31;6.00;;;3.60;;
3801;SDS011;1916;51.798;12.246;2022-09-09T01:15:40;4.70;;;3.60;;
3801;SDS011;1916;51.798;12.246;2022-09-09T01:17:46;4.70;;;4.23;;
3801;SDS011;1916;51.798;12.246;2022-09-09T01:20:15;4.63;;;3.47;;
3801;SDS011;1916;51.798;12.246;2022-09-09T01:25:25;4.80;;;3.20;;
3801;SDS011;1916;51.798;12.246;2022-09-09T01:27:44;4.77;;;3.53;;
3801;SDS011;1916;51.798;12.246;2022-09-09T01:29:50;5.23;;;3.83;;
3801;SDS011;1916;51.798;12.246;2022-09-09T01:34:31;7.93;;;4.30;;
3801;SDS011;1916;51.798;12.246;2022-09-09T01:36:38;3.97;;;3.30;;
3801;SDS011;1916;51.798;12.246;2022-09-09T01:38:46;7.30;;;4.30;;
3801;SDS011;1916;51.798;12.246;2022-09-09T01:40:49;5.77;;;3.70;;
3801;SDS011;1916;51.798;12.246;2022-09-09T01:42:57;8.60;;;4.23;;
3801;SDS011;1916;51.798;12.246;2022-09-09T01:44:59;6.13;;;3.90;;
3801;SDS011;1916;51.798;12.246;2022-09-09T01:47:01;3.80;;;3.50;;
3801;SDS011;1916;51.798;12.246;2022-09-09T01:49:05;4.77;;;3.50;;
3801;SDS011;1916;51.798;12.246;2022-09-09T01:51:09;6.90;;;3.97;;
3801;SDS011;1916;51.798;12.246;2022-09-09T01:53:15;8.23;;;4.00;;
3801;SDS011;1916;51.798;12.246;2022-09-09T01:55:21;5.77;;;4.53;;
3801;SDS011;1916;51.798;12.246;2022-09-09T01:57:31;5.40;;;3.40;;
3801;SDS011;1916;51.798;12.246;2022-09-09T02:03:55;5.43;;;4.07;;
3801;SDS011;1916;51.798;12.246;2022-09-09T02:08:44;6.67;;;4.30;;
3801;SDS011;1916;51.798;12.246;2022-09-09T02:11:11;5.00;;;4.40;;
3801;SDS011;1916;51.798;12.246;2022-09-09T02:13:24;5.90;;;4.50;;
3801;SDS011;1916;51.798;12.246;2022-09-09T02:15:31;4.97;;;4.50;;
3801;SDS011;1916;51.798;12.246;2022-09-09T02:17:36;7.40;;;4.17;;
3801;SDS011;1916;51.798;12.246;2022-09-09T02:19:45;13.43;;;3.70;;
3801;SDS011;1916;51.798;12.246;2022-09-09T02:22:10;6.90;;;3.77;;
3801;SDS011;1916;51.798;12.246;2022-09-09T02:24:12;4.80;;;4.30;;
3801;SDS011;1916;51.798;12.246;2022-09-09T02:26:21;8.00;;;4.20;;
3801;SDS011;1916;51.798;12.246;2022-09-09T02:28:31;5.90;;;4.30;;
3801;SDS011;1916;51.798;12.246;2022-09-09T02:30:34;7.03;;;4.93;;
3801;SDS011;1916;51.798;12.246;2022-09-09T02:32:39;4.07;;;3.67;;
3801;SDS011;1916;51.798;12.246;2022-09-09T02:34:48;4.00;;;3.60;;
3801;SDS011;1916;51.798;12.246;2022-09-09T02:36:52;5.23;;;3.83;;
3801;SDS011;1916;51.798;12.246;2022-09-09T02:38:55;12.87;;;4.03;;
3801;SDS011;1916;51.798;12.246;2022-09-09T02:41:01;7.37;;;4.63;;
3801;SDS011;1916;51.798;12.246;2022-09-09T02:43:04;7.03;;;4.00;;
3801;SDS011;1916;51.798;12.246;2022-09-09T02:45:10;7.00;;;3.87;;
3801;SDS011;1916;51.798;12.246;2022-09-09T02:49:19;6.40;;;3.53;;
3801;SDS011;1916;51.798;12.246;2022-09-09T02:53:40;7.63;;;3.43;;
3801;SDS011;1916;51.798;12.246;2022-09-09T02:55:48;5.27;;;3.20;;
3801;SDS011;1916;51.798;12.246;2022-09-09T02:57:57;8.40;;;3.50;;
3801;SDS011;1916;51.798;12.246;2022-09-09T03:00:02;5.30;;;3.57;;
3801;SDS011;1916;51.798;12.246;2022-09-09T03:02:07;8.00;;;3.90;;
3801;SDS011;1916;51.798;12.246;2022-09-09T03:04:09;7.97;;;4.07;;
3801;SDS011;1916;51.798;12.246;2022-09-09T03:06:13;13.83;;;3.80;;
3801;SDS011;1916;51.798;12.246;2022-09-09T03:08:16;4.97;;;3.20;;
3801;SDS011;1916;51.798;12.246;2022-09-09T03:10:19;11.07;;;3.30;;
3801;SDS011;1916;51.798;12.246;2022-09-09T03:12:21;5.70;;;4.10;;
3801;SDS011;1916;51.798;12.246;2022-09-09T03:14:23;6.33;;;3.50;;
3801;SDS011;1916;51.798;12.246;2022-09-09T03:16:29;4.60;;;3.70;;
3801;SDS011;1916;51.798;12.246;2022-09-09T03:18:31;7.00;;;3.63;;
3801;SDS011;1916;51.798;12.246;2022-09-09T03:20:34;5.40;;;3.10;;
3801;SDS011;1916;51.798;12.246;2022-09-09T03:22:36;8.17;;;3.90;;
3801;SDS011;1916;51.798;12.246;2022-09-09T03:24:38;5.53;;;3.53;;
3801;SDS011;1916;51.798;12.246;2022-09-09T03:26:40;11.80;;;4.23;;
3801;SDS011;1916;51.798;12.246;2022-09-09T03:28:45;31.73;;;4.13;;
3801;SDS011;1916;51.798;12.246;2022-09-09T03:30:51;5.07;;;3.40;;
3801;SDS011;1916;51.798;12.246;2022-09-09T03:32:54;11.23;;;3.80;;
3801;SDS011;1916;51.798;12.246;2022-09-09T03:35:00;8.47;;;3.20;;
3801;SDS011;1916;51.798;12.246;2022-09-09T03:37:02;3.47;;;2.77;;
3801;SDS011;1916;51.798;12.246;2022-09-09T03:39:04;7.13;;;4.00;;
3801;SDS011;1916;51.798;12.246;2022-09-09T03:41:06;4.60;;;3.20;;
3801;SDS011;1916;51.798;12.246;2022-09-09T03:43:09;4.07;;;3.73;;
3801;SDS011;1916;51.798;12.246;2022-09-09T03:45:12;7.67;;;3.63;;
3801;SDS011;1916;51.798;12.246;2022-09-09T03:47:16;5.70;;;3.73;;
3801;SDS011;1916;51.798;12.246;2022-09-09T03:49:19;7.07;;;3.93;;
3801;SDS011;1916;51.798;12.246;2022-09-09T03:51:24;7.50;;;3.40;;
3801;SDS011;1916;51.798;12.246;2022-09-09T03:53:26;4.90;;;4.00;;
3801;SDS011;1916;51.798;12.246;2022-09-09T03:55:28;4.17;;;3.30;;
3801;SDS011;1916;51.798;12.246;2022-09-09T03:57:31;8.60;;;3.87;;
3801;SDS011;1916;51.798;12.246;2022-09-09T03:59:33;5.77;;;3.50;;
3801;SDS011;1916;51.798;12.246;2022-09-09T04:01:37;6.50;;;3.43;;
3801;SDS011;1916;51.798;12.246;2022-09-09T04:03:39;4.80;;;3.07;;
3801;SDS011;1916;51.798;12.246;2022-09-09T04:05:41;9.10;;;3.57;;
3801;SDS011;1916;51.798;12.246;2022-09-09T04:07:44;3.90;;;3.10;;
3801;SDS011;1916;51.798;12.246;2022-09-09T04:09:47;5.33;;;3.70;;
3801;SDS011;1916;51.798;12.246;2022-09-09T04:11:49;4.77;;;3.80;;
3801;SDS011;1916;51.798;12.246;2022-09-09T04:13:51;7.23;;;3.60;;
3801;SDS011;1916;51.798;12.246;2022-09-09T04:15:54;9.50;;;3.77;;
3801;SDS011;1916;51.798;12.246;2022-09-09T04:17:57;5.70;;;3.10;;
3801;SDS011;1916;51.798;12.246;2022-09-09T04:19:59;8.03;;;3.40;;
3801;SDS011;1916;51.798;12.246;2022-09-09T04:22:02;9.43;;;3.97;;
3801;SDS011;1916;51.798;12.246;2022-09-09T04:24:07;6.20;;;3.47;;
3801;SDS011;1916;51.798;12.246;2022-09-09T04:26:09;7.10;;;3.23;;
3801;SDS011;1916;51.798;12.246;2022-09-09T04:28:13;5.10;;;3.63;;
3801;SDS011;1916;51.798;12.246;2022-09-09T04:30:16;4.27;;;3.80;;
3801;SDS011;1916;51.798;12.246;2022-09-09T04:32:19;5.07;;;3.40;;
3801;SDS011;1916;51.798;12.246;2022-09-09T04:34:21;6.13;;;4.20;;
3801;SDS011;1916;51.798;12.246;2022-09-09T04:36:23;4.43;;;4.03;;
3801;SDS011;1916;51.798;12.246;2022-09-09T04:38:29;11.37;;;4.40;;
3801;SDS011;1916;51.798;12.246;2022-09-09T04:40:32;4.40;;;4.00;;
3801;SDS011;1916;51.798;12.246;2022-09-09T04:42:36;7.03;;;4.87;;
3801;SDS011;1916;51.798;12.246;2022-09-09T04:44:38;5.67;;;4.77;;
3801;SDS011;1916;51.798;12.246;2022-09-09T04:46:41;9.90;;;5.27;;
3801;SDS011;1916;51.798;12.246;2022-09-09T04:48:44;6.30;;;4.30;;
3801;SDS011;1916;51.798;12.246;2022-09-09T04:51:00;5.23;;;4.73;;
3801;SDS011;1916;51.798;12.246;2022-09-09T04:53:06;6.50;;;4.63;;
3801;SDS011;1916;51.798;12.246;2022-09-09T04:55:11;8.63;;;5.20;;
3801;SDS011;1916;51.798;12.246;2022-09-09T04:57:18;6.23;;;4.70;;
3801;SDS011;1916;51.798;12.246;2022-09-09T04:59:21;6.83;;;4.87;;
3801;SDS011;1916;51.798;12.246;2022-09-09T05:01:28;7.07;;;4.70;;
3801;SDS011;1916;51.798;12.246;2022-09-09T05:03:36;4.90;;;4.33;;
3801;SDS011;1916;51.798;12.246;2022-09-09T05:05:40;7.87;;;4.77;;
3801;SDS011;1916;51.798;12.246;2022-09-09T05:07:42;8.63;;;4.40;;
3801;SDS011;1916;51.798;12.246;2022-09-09T05:09:45;5.13;;;4.10;;
3801;SDS011;1916;51.798;12.246;2022-09-09T05:11:48;7.97;;;5.93;;
3801;SDS011;1916;51.798;12.246;2022-09-09T05:14:09;5.63;;;4.70;;
3801;SDS011;1916;51.798;12.246;2022-09-09T05:16:14;9.13;;;4.63;;
3801;SDS011;1916;51.798;12.246;2022-09-09T05:18:16;6.33;;;4.40;;
3801;SDS011;1916;51.798;12.246;2022-09-09T05:20:18;7.37;;;4.33;;
3801;SDS011;1916;51.798;12.246;2022-09-09T05:22:21;7.43;;;4.53;;
3801;SDS011;1916;51.798;12.246;2022-09-09T05:24:26;9.50;;;3.80;;
3801;SDS011;1916;51.798;12.246;2022-09-09T05:26:31;8.53;;;5.10;;
3801;SDS011;1916;51.798;12.246;2022-09-09T05:28:34;10.20;;;4.73;;
3801;SDS011;1916;51.798;12.246;2022-09-09T05:30:40;14.53;;;5.17;;
3801;SDS011;1916;51.798;12.246;2022-09-09T05:32:42;6.83;;;4.47;;
3801;SDS011;1916;51.798;12.246;2022-09-09T05:34:46;6.13;;;4.60;;
3801;SDS011;1916;51.798;12.246;2022-09-09T05:36:49;7.53;;;4.27;;
3801;SDS011;1916;51.798;12.246;2022-09-09T05:38:51;4.67;;;4.00;;
3801;SDS011;1916;51.798;12.246;2022-09-09T05:40:55;6.50;;;3.70;;
3801;SDS011;1916;51.798;12.246;2022-09-09T05:43:01;10.30;;;3.47;;
3801;SDS011;1916;51.798;12.246;2022-09-09T05:45:03;5.67;;;3.53;;
3801;SDS011;1916;51.798;12.246;2022-09-09T05:47:06;6.00;;;3.33;;
3801;SDS011;1916;51.798;12.246;2022-09-09T05:49:09;6.70;;;3.80;;
3801;SDS011;1916;51.798;12.246;2022-09-09T05:51:15;7.70;;;3.43;;
3801;SDS011;1916;51.798;12.246;2022-09-09T05:53:19;6.63;;;3.97;;
3801;SDS011;1916;51.798;12.246;2022-09-09T05:55:22;6.53;;;3.40;;
3801;SDS011;1916;51.798;12.246;2022-09-09T05:57:24;11.97;;;4.53;;
3801;SDS011;1916;51.798;12.246;2022-09-09T05:59:27;7.03;;;3.67;;
3801;SDS011;1916;51.798;12.246;2022-09-09T06:01:31;5.63;;;3.50;;
3801;SDS011;1916;51.798;12.246;2022-09-09T06:03:36;6.73;;;3.67;;
3801;SDS011;1916;51.798;12.246;2022-09-09T06:05:40;7.60;;;4.10;;
3801;SDS011;1916;51.798;12.246;2022-09-09T06:07:42;8.10;;;3.30;;
3801;SDS011;1916;51.798;12.246;2022-09-09T06:09:46;6.07;;;3.03;;
3801;SDS011;1916;51.798;12.246;2022-09-09T06:11:49;4.50;;;3.20;;
3801;SDS011;1916;51.798;12.246;2022-09-09T06:13:51;9.63;;;3.60;;
3801;SDS011;1916;51.798;12.246;2022-09-09T06:15:56;10.90;;;3.50;;
3801;SDS011;1916;51.798;12.246;2022-09-09T06:17:58;5.07;;;3.37;;
3801;SDS011;1916;51.798;12.246;2022-09-09T06:20:01;3.13;;;2.83;;
3801;SDS011;1916;51.798;12.246;2022-09-09T06:22:05;5.07;;;3.07;;
3801;SDS011;1916;51.798;12.246;2022-09-09T06:24:11;7.53;;;3.50;;
3801;SDS011;1916;51.798;12.246;2022-09-09T06:26:17;5.93;;;2.90;;
3801;SDS011;1916;51.798;12.246;2022-09-09T06:28:23;4.70;;;2.63;;
3801;SDS011;1916;51.798;12.246;2022-09-09T06:30:26;4.30;;;2.73;;
3801;SDS011;1916;51.798;12.246;2022-09-09T06:32:28;5.20;;;2.57;;
3801;SDS011;1916;51.798;12.246;2022-09-09T06:34:31;9.63;;;3.00;;
3801;SDS011;1916;51.798;12.246;2022-09-09T06:36:35;4.10;;;2.70;;
3801;SDS011;1916;51.798;12.246;2022-09-09T06:38:39;3.67;;;2.90;;
3801;SDS011;1916;51.798;12.246;2022-09-09T06:40:41;6.93;;;2.93;;
3801;SDS011;1916;51.798;12.246;2022-09-09T06:42:44;3.70;;;2.40;;
3801;SDS011;1916;51.798;12.246;2022-09-09T06:45:06;3.50;;;2.63;;
3801;SDS011;1916;51.798;12.246;2022-09-09T06:47:18;6.60;;;3.17;;
3801;SDS011;1916;51.798;12.246;2022-09-09T06:49:20;4.17;;;2.63;;
3801;SDS011;1916;51.798;12.246;2022-09-09T06:51:24;6.90;;;3.13;;
3801;SDS011;1916;51.798;12.246;2022-09-09T06:53:27;5.43;;;2.77;;
3801;SDS011;1916;51.798;12.246;2022-09-09T06:55:31;4.97;;;3.33;;
3801;SDS011;1916;51.798;12.246;2022-09-09T06:57:34;7.57;;;2.93;;
3801;SDS011;1916;51.798;12.246;2022-09-09T06:59:47;5.40;;;3.17;;
3801;SDS011;1916;51.798;12.246;2022-09-09T07:01:50;4.33;;;2.60;;
3801;SDS011;1916;51.798;12.246;2022-09-09T07:03:57;4.13;;;2.83;;
3801;SDS011;1916;51.798;12.246;2022-09-09T07:06:06;9.50;;;3.00;;
3801;SDS011;1916;51.798;12.246;2022-09-09T07:08:10;4.13;;;2.87;;
3801;SDS011;1916;51.798;12.246;2022-09-09T07:10:13;8.73;;;3.50;;
3801;SDS011;1916;51.798;12.246;2022-09-09T07:12:15;3.57;;;2.53;;
3801;SDS011;1916;51.798;12.246;2022-09-09T07:14:24;4.57;;;2.87;;
3801;SDS011;1916;51.798;12.246;2022-09-09T07:16:33;7.43;;;3.37;;
3801;SDS011;1916;51.798;12.246;2022-09-09T07:18:39;2.93;;;2.70;;
3801;SDS011;1916;51.798;12.246;2022-09-09T07:20:41;9.43;;;3.00;;
3801;SDS011;1916;51.798;12.246;2022-09-09T07:22:46;6.87;;;3.13;;
3801;SDS011;1916;51.798;12.246;2022-09-09T07:24:49;3.03;;;2.73;;
3801;SDS011;1916;51.798;12.246;2022-09-09T07:26:51;4.93;;;2.90;;
3801;SDS011;1916;51.798;12.246;2022-09-09T07:28:54;7.17;;;3.23;;
3801;SDS011;1916;51.798;12.246;2022-09-09T07:30:58;3.50;;;2.90;;
3801;SDS011;1916;51.798;12.246;2022-09-09T07:33:04;3.80;;;2.70;;
3801;SDS011;1916;51.798;12.246;2022-09-09T07:35:06;7.33;;;2.50;;
3801;SDS011;1916;51.798;12.246;2022-09-09T07:37:09;10.63;;;2.87;;
3801;SDS011;1916;51.798;12.246;2022-09-09T07:39:15;6.67;;;2.50;;
3801;SDS011;1916;51.798;12.246;2022-09-09T07:41:24;4.40;;;2.40;;
3801;SDS011;1916;51.798;12.246;2022-09-09T07:43:28;4.67;;;2.07;;
3801;SDS011;1916;51.798;12.246;2022-09-09T07:45:30;4.13;;;2.20;;
3801;SDS011;1916;51.798;12.246;2022-09-09T07:47:35;4.30;;;1.77;;
3801;SDS011;1916;51.798;12.246;2022-09-09T07:49:37;4.17;;;1.93;;
3801;SDS011;1916;51.798;12.246;2022-09-09T07:51:42;4.40;;;2.10;;
3801;SDS011;1916;51.798;12.246;2022-09-09T07:53:48;2.20;;;1.67;;
3801;SDS011;1916;51.798;12.246;2022-09-09T07:56:01;4.47;;;1.90;;
3801;SDS011;1916;51.798;12.246;2022-09-09T07:58:05;4.93;;;1.73;;
3801;SDS011;1916;51.798;12.246;2022-09-09T08:00:07;5.77;;;1.60;;
3801;SDS011;1916;51.798;12.246;2022-09-09T08:02:17;3.07;;;1.30;;
3801;SDS011;1916;51.798;12.246;2022-09-09T08:04:20;4.83;;;1.27;;
3801;SDS011;1916;51.798;12.246;2022-09-09T08:06:25;4.57;;;1.37;;
3801;SDS011;1916;51.798;12.246;2022-09-09T08:11:14;1.60;;;1.30;;
3801;SDS011;1916;51.798;12.246;2022-09-09T08:13:17;5.23;;;1.60;;
3801;SDS011;1916;51.798;12.246;2022-09-09T08:15:21;3.23;;;1.60;;
3801;SDS011;1916;51.798;12.246;2022-09-09T08:17:24;2.27;;;1.30;;
3801;SDS011;1916;51.798;12.246;2022-09-09T08:19:26;6.60;;;1.33;;
3801;SDS011;1916;51.798;12.246;2022-09-09T08:21:33;1.53;;;1.33;;
3801;SDS011;1916;51.798;12.246;2022-09-09T08:23:40;1.73;;;1.53;;
3801;SDS011;1916;51.798;12.246;2022-09-09T08:25:44;4.80;;;1.70;;
3801;SDS011;1916;51.798;12.246;2022-09-09T08:27:47;8.13;;;1.50;;
3801;SDS011;1916;51.798;12.246;2022-09-09T08:29:50;3.77;;;1.40;;
3801;SDS011;1916;51.798;12.246;2022-09-09T08:31:52;3.73;;;1.53;;
3801;SDS011;1916;51.798;12.246;2022-09-09T08:33:57;5.17;;;1.97;;
3801;SDS011;1916;51.798;12.246;2022-09-09T08:36:01;3.80;;;1.60;;
3801;SDS011;1916;51.798;12.246;2022-09-09T08:38:04;3.63;;;1.60;;
3801;SDS011;1916;51.798;12.246;2022-09-09T08:40:16;5.77;;;1.40;;
3801;SDS011;1916;51.798;12.246;2022-09-09T08:42:29;3.90;;;1.40;;
3801;SDS011;1916;51.798;12.246;2022-09-09T08:49:10;2.90;;;1.40;;
3801;SDS011;1916;51.798;12.246;2022-09-09T08:51:21;8.93;;;1.43;;
3801;SDS011;1916;51.798;12.246;2022-09-09T08:53:24;5.00;;;1.57;;
3801;SDS011;1916;51.798;12.246;2022-09-09T08:58:02;7.27;;;1.50;;
3801;SDS011;1916;51.798;12.246;2022-09-09T09:00:10;8.40;;;1.60;;
3801;SDS011;1916;51.798;12.246;2022-09-09T09:02:15;2.73;;;1.37;;
3801;SDS011;1916;51.798;12.246;2022-09-09T09:04:29;5.77;;;1.50;;
3801;SDS011;1916;51.798;12.246;2022-09-09T09:06:45;7.10;;;1.60;;
3801;SDS011;1916;51.798;12.246;2022-09-09T09:11:36;3.80;;;1.73;;
3801;SDS011;1916;51.798;12.246;2022-09-09T09:13:54;3.10;;;1.40;;
3801;SDS011;1916;51.798;12.246;2022-09-09T09:16:09;9.30;;;2.03;;
3801;SDS011;1916;51.798;12.246;2022-09-09T09:18:19;5.17;;;1.47;;
3801;SDS011;1916;51.798;12.246;2022-09-09T09:20:29;6.60;;;2.17;;
3801;SDS011;1916;51.798;12.246;2022-09-09T09:22:50;3.63;;;1.13;;
3801;SDS011;1916;51.798;12.246;2022-09-09T09:27:29;3.07;;;1.20;;
3801;SDS011;1916;51.798;12.246;2022-09-09T09:29:40;5.20;;;1.60;;
3801;SDS011;1916;51.798;12.246;2022-09-09T09:32:05;5.47;;;1.77;;
3801;SDS011;1916;51.798;12.246;2022-09-09T09:34:09;5.53;;;1.47;;
3801;SDS011;1916;51.798;12.246;2022-09-09T09:36:15;4.70;;;1.90;;
3801;SDS011;1916;51.798;12.246;2022-09-09T09:38:20;11.97;;;1.77;;
3801;SDS011;1916;51.798;12.246;2022-09-09T09:40:49;8.33;;;2.47;;
3801;SDS011;1916;51.798;12.246;2022-09-09T09:43:00;5.53;;;1.40;;
3801;SDS011;1916;51.798;12.246;2022-09-09T09:45:08;6.17;;;1.70;;
3801;SDS011;1916;51.798;12.246;2022-09-09T09:47:17;3.38;;;1.60;;
3801;SDS011;1916;51.798;12.246;2022-09-09T09:50:00;3.30;;;1.60;;
3801;SDS011;1916;51.798;12.246;2022-09-09T09:52:12;3.50;;;1.30;;
3801;SDS011;1916;51.798;12.246;2022-09-09T09:54:18;7.40;;;1.57;;
3801;SDS011;1916;51.798;12.246;2022-09-09T09:56:29;2.40;;;1.20;;
3801;SDS011;1916;51.798;12.246;2022-09-09T09:58:33;4.97;;;1.30;;
3801;SDS011;1916;51.798;12.246;2022-09-09T10:00:50;6.40;;;1.30;;
3801;SDS011;1916;51.798;12.246;2022-09-09T10:02:56;4.93;;;1.40;;
3801;SDS011;1916;51.798;12.246;2022-09-09T10:05:06;5.07;;;1.80;;
3801;SDS011;1916;51.798;12.246;2022-09-09T10:07:19;14.67;;;6.10;;
3801;SDS011;1916;51.798;12.246;2022-09-09T10:11:40;4.90;;;1.80;;
3801;SDS011;1916;51.798;12.246;2022-09-09T10:18:59;2.47;;;1.33;;
3801;SDS011;1916;51.798;12.246;2022-09-09T10:23:33;3.77;;;1.63;;
3801;SDS011;1916;51.798;12.246;2022-09-09T10:26:14;5.50;;;1.30;;
3801;SDS011;1916;51.798;12.246;2022-09-09T10:33:10;2.07;;;1.10;;
3801;SDS011;1916;51.798;12.246;2022-09-09T10:35:36;7.23;;;1.97;;
3801;SDS011;1916;51.798;12.246;2022-09-09T10:40:32;4.20;;;1.20;;
3801;SDS011;1916;51.798;12.246;2022-09-09T10:42:34;3.00;;;1.37;;
3801;SDS011;1916;51.798;12.246;2022-09-09T10:44:39;7.13;;;1.70;;
3801;SDS011;1916;51.798;12.246;2022-09-09T10:51:53;2.70;;;1.43;;
3801;SDS011;1916;51.798;12.246;2022-09-09T10:56:13;3.53;;;1.20;;
3801;SDS011;1916;51.798;12.246;2022-09-09T10:58:25;5.90;;;1.30;;
3801;SDS011;1916;51.798;12.246;2022-09-09T11:02:41;5.03;;;1.63;;
3801;SDS011;1916;51.798;12.246;2022-09-09T11:04:48;2.50;;;1.10;;
3801;SDS011;1916;51.798;12.246;2022-09-09T11:07:12;2.30;;;1.30;;
3801;SDS011;1916;51.798;12.246;2022-09-09T11:09:17;1.97;;;1.20;;
3801;SDS011;1916;51.798;12.246;2022-09-09T11:11:26;3.10;;;1.70;;
3801;SDS011;1916;51.798;12.246;2022-09-09T11:13:40;6.63;;;1.90;;
3801;SDS011;1916;51.798;12.246;2022-09-09T11:15:45;2.60;;;1.13;;
3801;SDS011;1916;51.798;12.246;2022-09-09T11:17:53;3.43;;;1.57;;
3801;SDS011;1916;51.798;12.246;2022-09-09T11:19:58;8.83;;;1.90;;
3801;SDS011;1916;51.798;12.246;2022-09-09T11:22:01;12.77;;;2.10;;
3801;SDS011;1916;51.798;12.246;2022-09-09T11:24:09;6.50;;;1.80;;
3801;SDS011;1916;51.798;12.246;2022-09-09T11:26:17;5.13;;;1.37;;
3801;SDS011;1916;51.798;12.246;2022-09-09T11:33:25;4.20;;;1.80;;
3801;SDS011;1916;51.798;12.246;2022-09-09T11:38:32;6.37;;;1.83;;
3801;SDS011;1916;51.798;12.246;2022-09-09T11:40:44;7.50;;;1.67;;
3801;SDS011;1916;51.798;12.246;2022-09-09T11:42:46;6.67;;;1.47;;
3801;SDS011;1916;51.798;12.246;2022-09-09T11:44:51;7.37;;;1.70;;
3801;SDS011;1916;51.798;12.246;2022-09-09T11:46:55;5.63;;;1.90;;
3801;SDS011;1916;51.798;12.246;2022-09-09T11:49:06;10.33;;;1.70;;
3801;SDS011;1916;51.798;12.246;2022-09-09T11:53:25;4.97;;;1.40;;
3801;SDS011;1916;51.798;12.246;2022-09-09T11:55:30;2.83;;;1.40;;
3801;SDS011;1916;51.798;12.246;2022-09-09T11:57:35;3.40;;;1.50;;
3801;SDS011;1916;51.798;12.246;2022-09-09T11:59:38;2.70;;;1.40;;
3801;SDS011;1916;51.798;12.246;2022-09-09T12:01:43;2.10;;;1.03;;
3801;SDS011;1916;51.798;12.246;2022-09-09T12:03:50;3.27;;;1.50;;
3801;SDS011;1916;51.798;12.246;2022-09-09T12:05:54;3.53;;;1.30;;
3801;SDS011;1916;51.798;12.246;2022-09-09T12:07:58;3.17;;;1.37;;
3801;SDS011;1916;51.798;12.246;2022-09-09T12:12:34;5.30;;;1.50;;
3801;SDS011;1916;51.798;12.246;2022-09-09T12:14:54;4.80;;;1.20;;
3801;SDS011;1916;51.798;12.246;2022-09-09T12:16:57;3.70;;;1.17;;
3801;SDS011;1916;51.798;12.246;2022-09-09T12:19:29;3.03;;;1.20;;
3801;SDS011;1916;51.798;12.246;2022-09-09T12:21:34;4.77;;;1.27;;
3801;SDS011;1916;51.798;12.246;2022-09-09T12:30:56;2.10;;;1.10;;
3801;SDS011;1916;51.798;12.246;2022-09-09T12:33:08;3.60;;;1.40;;
3801;SDS011;1916;51.798;12.246;2022-09-09T12:35:18;4.60;;;1.30;;
3801;SDS011;1916;51.798;12.246;2022-09-09T12:37:32;1.90;;;1.10;;
3801;SDS011;1916;51.798;12.246;2022-09-09T12:39:38;5.80;;;1.50;;
3801;SDS011;1916;51.798;12.246;2022-09-09T12:41:50;7.03;;;1.83;;
3801;SDS011;1916;51.798;12.246;2022-09-09T12:44:32;2.83;;;1.27;;
3801;SDS011;1916;51.798;12.246;2022-09-09T12:46:33;3.90;;;1.60;;
3801;SDS011;1916;51.798;12.246;2022-09-09T12:48:41;1.97;;;1.23;;
3801;SDS011;1916;51.798;12.246;2022-09-09T12:50:47;5.17;;;1.33;;
3801;SDS011;1916;51.798;12.246;2022-09-09T12:52:52;9.13;;;1.40;;
3801;SDS011;1916;51.798;12.246;2022-09-09T12:54:57;4.60;;;1.30;;
3801;SDS011;1916;51.798;12.246;2022-09-09T12:57:00;1.93;;;1.13;;
3801;SDS011;1916;51.798;12.246;2022-09-09T12:59:02;4.10;;;1.20;;
3801;SDS011;1916;51.798;12.246;2022-09-09T13:01:05;3.70;;;1.40;;
3801;SDS011;1916;51.798;12.246;2022-09-09T13:03:17;4.80;;;1.80;;
3801;SDS011;1916;51.798;12.246;2022-09-09T13:05:25;4.80;;;1.30;;
3801;SDS011;1916;51.798;12.246;2022-09-09T13:07:29;4.03;;;1.23;;
3801;SDS011;1916;51.798;12.246;2022-09-09T13:09:31;2.83;;;1.40;;
3801;SDS011;1916;51.798;12.246;2022-09-09T13:11:35;4.40;;;1.20;;
3801;SDS011;1916;51.798;12.246;2022-09-09T13:13:40;3.23;;;1.17;;
3801;SDS011;1916;51.798;12.246;2022-09-09T13:15:50;1.37;;;1.00;;
3801;SDS011;1916;51.798;12.246;2022-09-09T13:17:57;2.60;;;1.57;;
3801;SDS011;1916;51.798;12.246;2022-09-09T13:20:02;1.57;;;1.07;;
3801;SDS011;1916;51.798;12.246;2022-09-09T13:22:12;8.00;;;1.40;;
3801;SDS011;1916;51.798;12.246;2022-09-09T13:26:34;6.53;;;1.43;;
3801;SDS011;1916;51.798;12.246;2022-09-09T13:28:36;2.13;;;1.33;;
3801;SDS011;1916;51.798;12.246;2022-09-09T13:30:38;2.80;;;1.20;;
3801;SDS011;1916;51.798;12.246;2022-09-09T13:32:42;4.17;;;1.40;;
3801;SDS011;1916;51.798;12.246;2022-09-09T13:34:54;6.97;;;1.53;;
3801;SDS011;1916;51.798;12.246;2022-09-09T13:37:01;1.67;;;1.10;;
3801;SDS011;1916;51.798;12.246;2022-09-09T13:39:04;2.53;;;1.10;;
3801;SDS011;1916;51.798;12.246;2022-09-09T13:41:07;3.17;;;1.43;;
3801;SDS011;1916;51.798;12.246;2022-09-09T13:43:15;4.80;;;1.43;;
3801;SDS011;1916;51.798;12.246;2022-09-09T13:45:23;2.50;;;1.27;;
3801;SDS011;1916;51.798;12.246;2022-09-09T13:47:30;7.33;;;1.60;;
3801;SDS011;1916;51.798;12.246;2022-09-09T13:49:36;2.53;;;1.13;;
3801;SDS011;1916;51.798;12.246;2022-09-09T13:51:39;5.33;;;1.60;;
3801;SDS011;1916;51.798;12.246;2022-09-09T13:53:45;2.30;;;1.53;;
3801;SDS011;1916;51.798;12.246;2022-09-09T13:55:47;3.70;;;1.37;;
3801;SDS011;1916;51.798;12.246;2022-09-09T13:57:54;2.80;;;1.10;;
3801;SDS011;1916;51.798;12.246;2022-09-09T13:59:58;3.90;;;1.60;;
3801;SDS011;1916;51.798;12.246;2022-09-09T14:02:07;2.73;;;1.20;;
3801;SDS011;1916;51.798;12.246;2022-09-09T14:04:10;2.53;;;1.20;;
3801;SDS011;1916;51.798;12.246;2022-09-09T14:06:12;3.83;;;1.17;;
3801;SDS011;1916;51.798;12.246;2022-09-09T14:08:19;4.20;;;1.33;;
3801;SDS011;1916;51.798;12.246;2022-09-09T14:10:23;2.93;;;1.30;;
3801;SDS011;1916;51.798;12.246;2022-09-09T14:12:25;1.77;;;1.20;;
3801;SDS011;1916;51.798;12.246;2022-09-09T14:14:27;4.77;;;1.60;;
3801;SDS011;1916;51.798;12.246;2022-09-09T14:16:30;4.20;;;1.53;;
3801;SDS011;1916;51.798;12.246;2022-09-09T14:18:32;3.20;;;1.13;;
3801;SDS011;1916;51.798;12.246;2022-09-09T14:20:35;5.10;;;1.40;;
3801;SDS011;1916;51.798;12.246;2022-09-09T14:22:37;3.23;;;1.20;;
3801;SDS011;1916;51.798;12.246;2022-09-09T14:24:41;2.00;;;1.10;;
3801;SDS011;1916;51.798;12.246;2022-09-09T14:26:43;7.23;;;1.30;;
3801;SDS011;1916;51.798;12.246;2022-09-09T14:28:45;1.87;;;1.10;;
3801;SDS011;1916;51.798;12.246;2022-09-09T14:30:58;4.00;;;1.27;;
3801;SDS011;1916;51.798;12.246;2022-09-09T14:33:02;2.90;;;1.20;;
3801;SDS011;1916;51.798;12.246;2022-09-09T14:35:05;1.07;;;0.80;;